sensor_id;sensor_type;location;lat;lon;timestamp;temperature;humidity
53498;DHT22;39382;47.168;16.008;2022-09-16T00:00:13;16.60;99.90
53498;DHT22;39382;47.168;16.008;2022-09-16T00:02:39;16.60;99.90
53498;DHT22;39382;47.168;16.008;2022-09-16T00:05:04;16.60;99.90
53498;DHT22;39382;47.168;16.008;2022-09-16T00:07:30;16.60;99.90
53498;DHT22;39382;47.168;16.008;2022-09-16T00:09:56;16.60;99.90
53498;DHT22;39382;47.168;16.008;2022-09-16T00:12:21;16.50;99.90
53498;DHT22;39382;47.168;16.008;2022-09-16T00:14:48;16.60;99.90
53498;DHT22;39382;47.168;16.008;2022-09-16T00:17:13;16.50;99.90
53498;DHT22;39382;47.168;16.008;2022-09-16T00:19:39;16.60;99.90
53498;DHT22;39382;47.168;16.008;2022-09-16T00:22:04;16.50;99.90
53498;DHT22;39382;47.168;16.008;2022-09-16T00:24:30;16.50;99.90
53498;DHT22;39382;47.168;16.008;2022-09-16T00:26:56;16.50;99.90
53498;DHT22;39382;47.168;16.008;2022-09-16T00:29:22;16.50;99.90
53498;DHT22;39382;47.168;16.008;2022-09-16T00:31:47;16.50;99.90
53498;DHT22;39382;47.168;16.008;2022-09-16T00:34:13;16.50;99.90
53498;DHT22;39382;47.168;16.008;2022-09-16T00:36:38;16.50;99.90
53498;DHT22;39382;47.168;16.008;2022-09-16T00:39:04;16.50;99.90
53498;DHT22;39382;47.168;16.008;2022-09-16T00:41:30;16.50;99.90
53498;DHT22;39382;47.168;16.008;2022-09-16T00:47:12;16.50;99.90
53498;DHT22;39382;47.168;16.008;2022-09-16T00:49:38;16.50;99.90
53498;DHT22;39382;47.168;16.008;2022-09-16T00:52:04;16.50;99.90
53498;DHT22;39382;47.168;16.008;2022-09-16T00:54:32;16.50;99.90
53498;DHT22;39382;47.168;16.008;2022-09-16T00:57:00;16.40;99.90
53498;DHT22;39382;47.168;16.008;2022-09-16T00:59:32;16.40;99.90
53498;DHT22;39382;47.168;16.008;2022-09-16T01:02:05;16.40;99.90
53498;DHT22;39382;47.168;16.008;2022-09-16T01:04:41;16.40;99.90
53498;DHT22;39382;47.168;16.008;2022-09-16T01:07:08;16.40;99.90
53498;DHT22;39382;47.168;16.008;2022-09-16T01:09:35;16.50;99.90
53498;DHT22;39382;47.168;16.008;2022-09-16T01:12:00;16.40;99.90
53498;DHT22;39382;47.168;16.008;2022-09-16T01:14:27;16.50;99.90
53498;DHT22;39382;47.168;16.008;2022-09-16T01:23:33;16.40;99.90
53498;DHT22;39382;47.168;16.008;2022-09-16T01:31:38;16.50;99.90
53498;DHT22;39382;47.168;16.008;2022-09-16T01:34:16;16.50;99.90
53498;DHT22;39382;47.168;16.008;2022-09-16T01:39:44;16.40;99.90
53498;DHT22;39382;47.168;16.008;2022-09-16T01:42:33;16.40;99.90
53498;DHT22;39382;47.168;16.008;2022-09-16T01:45:07;16.40;99.90
53498;DHT22;39382;47.168;16.008;2022-09-16T01:47:35;16.40;99.90
53498;DHT22;39382;47.168;16.008;2022-09-16T01:50:21;16.40;99.90
53498;DHT22;39382;47.168;16.008;2022-09-16T01:53:02;16.40;99.90
53498;DHT22;39382;47.168;16.008;2022-09-16T01:55:40;16.40;99.90
53498;DHT22;39382;47.168;16.008;2022-09-16T02:00:47;16.30;99.90
53498;DHT22;39382;47.168;16.008;2022-09-16T02:03:23;16.30;99.90
53498;DHT22;39382;47.168;16.008;2022-09-16T02:05:57;16.30;99.90
53498;DHT22;39382;47.168;16.008;2022-09-16T02:08:33;16.30;99.90
53498;DHT22;39382;47.168;16.008;2022-09-16T02:11:01;16.30;99.90
53498;DHT22;39382;47.168;16.008;2022-09-16T02:13:33;16.30;99.90
53498;DHT22;39382;47.168;16.008;2022-09-16T02:16:04;16.30;99.90
53498;DHT22;39382;47.168;16.008;2022-09-16T02:18:34;16.30;99.90
53498;DHT22;39382;47.168;16.008;2022-09-16T02:21:04;16.30;99.90
53498;DHT22;39382;47.168;16.008;2022-09-16T02:23:35;16.30;99.90
53498;DHT22;39382;47.168;16.008;2022-09-16T02:26:05;16.30;99.90
53498;DHT22;39382;47.168;16.008;2022-09-16T02:28:33;16.30;99.90
53498;DHT22;39382;47.168;16.008;2022-09-16T02:31:02;16.20;99.90
53498;DHT22;39382;47.168;16.008;2022-09-16T02:33:34;16.30;99.90
53498;DHT22;39382;47.168;16.008;2022-09-16T02:36:02;16.30;99.90
53498;DHT22;39382;47.168;16.008;2022-09-16T02:38:33;16.30;99.90
53498;DHT22;39382;47.168;16.008;2022-09-16T02:41:01;16.40;99.90
53498;DHT22;39382;47.168;16.008;2022-09-16T02:43:28;16.40;99.90
53498;DHT22;39382;47.168;16.008;2022-09-16T02:51:42;16.40;99.90
53498;DHT22;39382;47.168;16.008;2022-09-16T02:56:57;16.40;99.90
53498;DHT22;39382;47.168;16.008;2022-09-16T02:59:23;16.40;99.90
53498;DHT22;39382;47.168;16.008;2022-09-16T03:01:50;16.50;99.90
53498;DHT22;39382;47.168;16.008;2022-09-16T03:04:17;16.50;99.90
53498;DHT22;39382;47.168;16.008;2022-09-16T03:06:44;16.50;99.90
53498;DHT22;39382;47.168;16.008;2022-09-16T03:09:12;16.50;99.90
53498;DHT22;39382;47.168;16.008;2022-09-16T03:19:58;16.60;99.90
53498;DHT22;39382;47.168;16.008;2022-09-16T03:22:45;16.60;99.90
53498;DHT22;39382;47.168;16.008;2022-09-16T03:27:49;16.60;99.90
53498;DHT22;39382;47.168;16.008;2022-09-16T03:30:15;16.60;99.90
53498;DHT22;39382;47.168;16.008;2022-09-16T03:32:51;16.50;99.90
53498;DHT22;39382;47.168;16.008;2022-09-16T03:35:25;16.50;99.90
53498;DHT22;39382;47.168;16.008;2022-09-16T03:37:54;16.50;99.90
53498;DHT22;39382;47.168;16.008;2022-09-16T03:40:21;16.40;99.90
53498;DHT22;39382;47.168;16.008;2022-09-16T03:42:47;16.40;99.90
53498;DHT22;39382;47.168;16.008;2022-09-16T03:45:18;16.40;99.90
53498;DHT22;39382;47.168;16.008;2022-09-16T03:47:45;16.40;99.90
53498;DHT22;39382;47.168;16.008;2022-09-16T03:50:12;16.40;99.90
53498;DHT22;39382;47.168;16.008;2022-09-16T03:52:38;16.30;99.90
53498;DHT22;39382;47.168;16.008;2022-09-16T03:55:05;16.30;99.90
53498;DHT22;39382;47.168;16.008;2022-09-16T03:57:32;16.30;99.90
53498;DHT22;39382;47.168;16.008;2022-09-16T03:59:58;16.30;99.90
53498;DHT22;39382;47.168;16.008;2022-09-16T04:02:23;16.30;99.90
53498;DHT22;39382;47.168;16.008;2022-09-16T04:04:49;16.20;99.90
53498;DHT22;39382;47.168;16.008;2022-09-16T04:07:15;16.20;99.90
53498;DHT22;39382;47.168;16.008;2022-09-16T04:09:40;16.20;99.90
53498;DHT22;39382;47.168;16.008;2022-09-16T04:12:06;16.20;99.90
53498;DHT22;39382;47.168;16.008;2022-09-16T04:14:33;16.20;99.90
53498;DHT22;39382;47.168;16.008;2022-09-16T04:16:59;16.20;99.90
53498;DHT22;39382;47.168;16.008;2022-09-16T04:19:25;16.20;99.90
53498;DHT22;39382;47.168;16.008;2022-09-16T04:21:50;16.20;99.90
53498;DHT22;39382;47.168;16.008;2022-09-16T04:24:16;16.20;99.90
53498;DHT22;39382;47.168;16.008;2022-09-16T04:26:42;16.20;99.90
53498;DHT22;39382;47.168;16.008;2022-09-16T04:29:08;16.20;99.90
53498;DHT22;39382;47.168;16.008;2022-09-16T04:31:34;16.20;99.90
53498;DHT22;39382;47.168;16.008;2022-09-16T04:34:01;16.10;99.90
53498;DHT22;39382;47.168;16.008;2022-09-16T04:36:26;16.20;99.90
53498;DHT22;39382;47.168;16.008;2022-09-16T04:38:52;16.10;99.90
53498;DHT22;39382;47.168;16.008;2022-09-16T04:41:20;16.00;99.90
53498;DHT22;39382;47.168;16.008;2022-09-16T04:43:49;16.00;99.90
53498;DHT22;39382;47.168;16.008;2022-09-16T04:46:15;16.00;99.90
53498;DHT22;39382;47.168;16.008;2022-09-16T04:48:41;16.00;99.90
53498;DHT22;39382;47.168;16.008;2022-09-16T04:51:10;16.00;99.90
53498;DHT22;39382;47.168;16.008;2022-09-16T04:53:37;15.90;99.90
53498;DHT22;39382;47.168;16.008;2022-09-16T04:56:08;15.90;99.90
53498;DHT22;39382;47.168;16.008;2022-09-16T04:58:37;15.90;99.90
53498;DHT22;39382;47.168;16.008;2022-09-16T05:01:14;16.00;99.90
53498;DHT22;39382;47.168;16.008;2022-09-16T05:03:48;15.90;99.90
53498;DHT22;39382;47.168;16.008;2022-09-16T05:06:19;15.90;99.90
53498;DHT22;39382;47.168;16.008;2022-09-16T05:08:45;16.00;99.90
53498;DHT22;39382;47.168;16.008;2022-09-16T05:11:13;15.90;99.90
53498;DHT22;39382;47.168;16.008;2022-09-16T05:13:39;16.20;99.90
53498;DHT22;39382;47.168;16.008;2022-09-16T05:16:08;16.60;99.90
53498;DHT22;39382;47.168;16.008;2022-09-16T05:18:35;16.90;99.90
53498;DHT22;39382;47.168;16.008;2022-09-16T05:21:03;17.00;99.90
53498;DHT22;39382;47.168;16.008;2022-09-16T05:23:29;17.10;99.90
53498;DHT22;39382;47.168;16.008;2022-09-16T05:26:00;17.00;99.90
53498;DHT22;39382;47.168;16.008;2022-09-16T05:28:27;17.00;99.90
53498;DHT22;39382;47.168;16.008;2022-09-16T05:30:52;17.10;99.90
53498;DHT22;39382;47.168;16.008;2022-09-16T05:33:18;17.20;99.90
53498;DHT22;39382;47.168;16.008;2022-09-16T05:35:44;17.20;99.90
53498;DHT22;39382;47.168;16.008;2022-09-16T05:38:11;17.20;99.90
53498;DHT22;39382;47.168;16.008;2022-09-16T05:40:36;17.10;99.90
53498;DHT22;39382;47.168;16.008;2022-09-16T05:43:02;17.10;99.90
53498;DHT22;39382;47.168;16.008;2022-09-16T05:45:28;17.10;99.90
53498;DHT22;39382;47.168;16.008;2022-09-16T05:47:53;17.10;99.90
53498;DHT22;39382;47.168;16.008;2022-09-16T05:50:19;17.20;99.90
53498;DHT22;39382;47.168;16.008;2022-09-16T05:52:45;17.10;99.90
53498;DHT22;39382;47.168;16.008;2022-09-16T05:55:11;17.20;99.90
53498;DHT22;39382;47.168;16.008;2022-09-16T05:57:36;17.10;99.90
53498;DHT22;39382;47.168;16.008;2022-09-16T06:00:03;17.20;99.90
53498;DHT22;39382;47.168;16.008;2022-09-16T06:02:29;17.20;99.90
53498;DHT22;39382;47.168;16.008;2022-09-16T06:04:55;17.30;99.90
53498;DHT22;39382;47.168;16.008;2022-09-16T06:07:20;17.30;99.90
53498;DHT22;39382;47.168;16.008;2022-09-16T06:09:46;17.30;99.90
53498;DHT22;39382;47.168;16.008;2022-09-16T06:12:12;17.30;99.90
53498;DHT22;39382;47.168;16.008;2022-09-16T06:14:37;17.30;99.90
53498;DHT22;39382;47.168;16.008;2022-09-16T06:17:03;17.30;99.90
53498;DHT22;39382;47.168;16.008;2022-09-16T06:19:28;17.30;99.90
53498;DHT22;39382;47.168;16.008;2022-09-16T06:21:54;17.30;99.90
53498;DHT22;39382;47.168;16.008;2022-09-16T06:24:20;17.30;99.90
53498;DHT22;39382;47.168;16.008;2022-09-16T06:26:46;17.30;99.90
53498;DHT22;39382;47.168;16.008;2022-09-16T06:29:13;17.20;99.90
53498;DHT22;39382;47.168;16.008;2022-09-16T06:31:40;17.20;99.90
53498;DHT22;39382;47.168;16.008;2022-09-16T06:34:07;17.20;99.90
53498;DHT22;39382;47.168;16.008;2022-09-16T06:36:35;17.20;99.90
53498;DHT22;39382;47.168;16.008;2022-09-16T06:39:02;17.30;99.90
53498;DHT22;39382;47.168;16.008;2022-09-16T06:41:30;17.20;99.90
53498;DHT22;39382;47.168;16.008;2022-09-16T06:43:56;17.00;99.90
53498;DHT22;39382;47.168;16.008;2022-09-16T06:46:26;17.00;99.90
53498;DHT22;39382;47.168;16.008;2022-09-16T06:48:54;16.70;99.90
53498;DHT22;39382;47.168;16.008;2022-09-16T06:51:25;16.70;99.90
53498;DHT22;39382;47.168;16.008;2022-09-16T06:53:52;16.60;99.90
53498;DHT22;39382;47.168;16.008;2022-09-16T06:56:20;16.50;99.90
53498;DHT22;39382;47.168;16.008;2022-09-16T06:58:49;16.50;99.90
53498;DHT22;39382;47.168;16.008;2022-09-16T07:01:22;16.50;99.90
53498;DHT22;39382;47.168;16.008;2022-09-16T07:03:49;16.50;99.90
53498;DHT22;39382;47.168;16.008;2022-09-16T07:06:17;16.50;99.90
53498;DHT22;39382;47.168;16.008;2022-09-16T07:08:44;16.50;99.90
53498;DHT22;39382;47.168;16.008;2022-09-16T07:13:38;16.40;99.90
53498;DHT22;39382;47.168;16.008;2022-09-16T07:16:09;16.30;99.90
53498;DHT22;39382;47.168;16.008;2022-09-16T07:18:35;16.30;99.90
53498;DHT22;39382;47.168;16.008;2022-09-16T07:21:02;16.30;99.90
53498;DHT22;39382;47.168;16.008;2022-09-16T07:23:30;16.30;99.90
53498;DHT22;39382;47.168;16.008;2022-09-16T07:26:01;16.30;99.90
53498;DHT22;39382;47.168;16.008;2022-09-16T07:28:27;16.30;99.90
53498;DHT22;39382;47.168;16.008;2022-09-16T07:30:53;16.30;99.90
53498;DHT22;39382;47.168;16.008;2022-09-16T07:33:19;16.30;99.90
53498;DHT22;39382;47.168;16.008;2022-09-16T07:35:45;16.20;99.90
53498;DHT22;39382;47.168;16.008;2022-09-16T07:38:10;16.20;99.90
53498;DHT22;39382;47.168;16.008;2022-09-16T07:40:36;16.20;99.90
53498;DHT22;39382;47.168;16.008;2022-09-16T07:43:05;16.20;99.90
53498;DHT22;39382;47.168;16.008;2022-09-16T07:45:31;16.10;99.90
53498;DHT22;39382;47.168;16.008;2022-09-16T07:47:56;16.10;99.90
53498;DHT22;39382;47.168;16.008;2022-09-16T07:50:22;16.10;99.90
53498;DHT22;39382;47.168;16.008;2022-09-16T07:52:52;16.10;99.90
53498;DHT22;39382;47.168;16.008;2022-09-16T07:55:17;16.10;99.90
53498;DHT22;39382;47.168;16.008;2022-09-16T07:57:44;16.10;99.90
53498;DHT22;39382;47.168;16.008;2022-09-16T08:00:10;16.10;99.90
53498;DHT22;39382;47.168;16.008;2022-09-16T08:02:36;16.20;99.90
53498;DHT22;39382;47.168;16.008;2022-09-16T08:05:02;16.20;99.90
53498;DHT22;39382;47.168;16.008;2022-09-16T08:07:28;16.20;99.90
53498;DHT22;39382;47.168;16.008;2022-09-16T08:09:53;16.20;99.90
53498;DHT22;39382;47.168;16.008;2022-09-16T08:12:19;16.20;99.90
53498;DHT22;39382;47.168;16.008;2022-09-16T08:14:45;16.10;99.90
53498;DHT22;39382;47.168;16.008;2022-09-16T08:17:10;16.30;99.90
53498;DHT22;39382;47.168;16.008;2022-09-16T08:19:36;16.60;99.90
53498;DHT22;39382;47.168;16.008;2022-09-16T08:22:03;16.70;99.90
53498;DHT22;39382;47.168;16.008;2022-09-16T08:24:29;16.80;99.90
53498;DHT22;39382;47.168;16.008;2022-09-16T08:26:55;16.70;99.90
53498;DHT22;39382;47.168;16.008;2022-09-16T08:29:20;16.80;99.90
53498;DHT22;39382;47.168;16.008;2022-09-16T08:31:47;16.80;99.90
53498;DHT22;39382;47.168;16.008;2022-09-16T08:34:12;16.70;99.90
53498;DHT22;39382;47.168;16.008;2022-09-16T08:36:38;16.70;99.90
53498;DHT22;39382;47.168;16.008;2022-09-16T08:39:04;16.80;99.90
53498;DHT22;39382;47.168;16.008;2022-09-16T08:44:59;16.80;99.90
53498;DHT22;39382;47.168;16.008;2022-09-16T08:50:27;16.80;99.90
53498;DHT22;39382;47.168;16.008;2022-09-16T08:52:56;16.70;99.90
53498;DHT22;39382;47.168;16.008;2022-09-16T08:55:33;16.70;99.90
53498;DHT22;39382;47.168;16.008;2022-09-16T08:58:13;16.70;99.90
53498;DHT22;39382;47.168;16.008;2022-09-16T09:00:41;16.70;99.90
53498;DHT22;39382;47.168;16.008;2022-09-16T09:06:03;16.70;99.90
53498;DHT22;39382;47.168;16.008;2022-09-16T09:11:33;16.60;99.90
53498;DHT22;39382;47.168;16.008;2022-09-16T09:23:01;16.50;99.90
53498;DHT22;39382;47.168;16.008;2022-09-16T09:33:51;16.30;99.90
53498;DHT22;39382;47.168;16.008;2022-09-16T09:39:55;16.10;99.90
53498;DHT22;39382;47.168;16.008;2022-09-16T09:42:30;16.10;99.90
53498;DHT22;39382;47.168;16.008;2022-09-16T09:50:45;16.10;99.90
53498;DHT22;39382;47.168;16.008;2022-09-16T09:56:15;16.40;99.90
53498;DHT22;39382;47.168;16.008;2022-09-16T10:01:51;16.50;99.90
53498;DHT22;39382;47.168;16.008;2022-09-16T10:04:17;16.40;99.90
53498;DHT22;39382;47.168;16.008;2022-09-16T10:06:43;16.40;99.90
53498;DHT22;39382;47.168;16.008;2022-09-16T10:09:13;16.40;99.90
53498;DHT22;39382;47.168;16.008;2022-09-16T10:11:51;16.30;99.90
53498;DHT22;39382;47.168;16.008;2022-09-16T10:14:32;16.30;99.90
53498;DHT22;39382;47.168;16.008;2022-09-16T10:17:03;16.20;99.90
53498;DHT22;39382;47.168;16.008;2022-09-16T10:19:34;16.20;99.90
53498;DHT22;39382;47.168;16.008;2022-09-16T10:22:19;16.20;99.90
53498;DHT22;39382;47.168;16.008;2022-09-16T10:24:58;16.20;99.90
53498;DHT22;39382;47.168;16.008;2022-09-16T10:27:33;16.20;99.90
53498;DHT22;39382;47.168;16.008;2022-09-16T10:30:27;16.30;99.90
53498;DHT22;39382;47.168;16.008;2022-09-16T10:35:26;16.30;99.90
53498;DHT22;39382;47.168;16.008;2022-09-16T10:37:58;16.20;99.90
53498;DHT22;39382;47.168;16.008;2022-09-16T10:40:26;16.30;99.90
53498;DHT22;39382;47.168;16.008;2022-09-16T10:42:53;16.30;99.90
53498;DHT22;39382;47.168;16.008;2022-09-16T10:45:29;16.40;99.90
53498;DHT22;39382;47.168;16.008;2022-09-16T10:47:59;16.50;99.90
53498;DHT22;39382;47.168;16.008;2022-09-16T10:50:25;16.50;99.90
53498;DHT22;39382;47.168;16.008;2022-09-16T10:52:52;16.50;99.90
53498;DHT22;39382;47.168;16.008;2022-09-16T10:57:44;16.40;99.90
53498;DHT22;39382;47.168;16.008;2022-09-16T11:03:05;16.30;99.90
53498;DHT22;39382;47.168;16.008;2022-09-16T11:13:19;16.20;99.90
53498;DHT22;39382;47.168;16.008;2022-09-16T11:21:16;16.10;99.90
53498;DHT22;39382;47.168;16.008;2022-09-16T11:24:39;16.20;99.90
53498;DHT22;39382;47.168;16.008;2022-09-16T11:27:02;16.20;99.90
53498;DHT22;39382;47.168;16.008;2022-09-16T11:32:29;16.20;99.90
53498;DHT22;39382;47.168;16.008;2022-09-16T11:37:59;16.40;99.90
53498;DHT22;39382;47.168;16.008;2022-09-16T11:40:51;16.50;99.90
53498;DHT22;39382;47.168;16.008;2022-09-16T11:44:01;16.60;99.90
53498;DHT22;39382;47.168;16.008;2022-09-16T11:47:00;16.80;99.90
53498;DHT22;39382;47.168;16.008;2022-09-16T11:57:41;17.20;99.90
53498;DHT22;39382;47.168;16.008;2022-09-16T12:00:13;17.40;99.90
53498;DHT22;39382;47.168;16.008;2022-09-16T12:02:58;17.60;99.90
53498;DHT22;39382;47.168;16.008;2022-09-16T12:05:36;17.60;99.90
53498;DHT22;39382;47.168;16.008;2022-09-16T12:08:14;17.40;99.90
53498;DHT22;39382;47.168;16.008;2022-09-16T12:10:50;17.40;99.90
53498;DHT22;39382;47.168;16.008;2022-09-16T12:14:21;17.20;99.90
53498;DHT22;39382;47.168;16.008;2022-09-16T12:16:34;17.20;99.90
53498;DHT22;39382;47.168;16.008;2022-09-16T12:19:09;17.20;99.90
53498;DHT22;39382;47.168;16.008;2022-09-16T12:30:23;17.10;99.90
53498;DHT22;39382;47.168;16.008;2022-09-16T12:33:05;17.10;99.90
53498;DHT22;39382;47.168;16.008;2022-09-16T12:35:41;17.00;99.90
53498;DHT22;39382;47.168;16.008;2022-09-16T12:38:18;16.90;99.90
53498;DHT22;39382;47.168;16.008;2022-09-16T12:49:56;16.60;99.90
53498;DHT22;39382;47.168;16.008;2022-09-16T13:01:41;16.60;99.90
53498;DHT22;39382;47.168;16.008;2022-09-16T13:04:13;16.70;99.90
53498;DHT22;39382;47.168;16.008;2022-09-16T13:06:45;16.70;99.90
53498;DHT22;39382;47.168;16.008;2022-09-16T13:09:38;16.60;99.90
53498;DHT22;39382;47.168;16.008;2022-09-16T13:12:17;16.50;99.90
53498;DHT22;39382;47.168;16.008;2022-09-16T13:14:53;16.30;99.90
53498;DHT22;39382;47.168;16.008;2022-09-16T13:17:37;16.20;99.90
53498;DHT22;39382;47.168;16.008;2022-09-16T13:22:44;16.20;99.90
53498;DHT22;39382;47.168;16.008;2022-09-16T13:25:22;16.20;99.90
53498;DHT22;39382;47.168;16.008;2022-09-16T13:30:31;16.20;99.90
53498;DHT22;39382;47.168;16.008;2022-09-16T13:33:00;16.10;99.90
53498;DHT22;39382;47.168;16.008;2022-09-16T13:38:19;16.00;99.90
53498;DHT22;39382;47.168;16.008;2022-09-16T13:41:00;15.90;99.90
53498;DHT22;39382;47.168;16.008;2022-09-16T13:46:11;15.90;99.90
53498;DHT22;39382;47.168;16.008;2022-09-16T13:51:27;15.80;99.90
53498;DHT22;39382;47.168;16.008;2022-09-16T13:53:54;15.60;99.90
53498;DHT22;39382;47.168;16.008;2022-09-16T14:07:49;15.60;99.90
53498;DHT22;39382;47.168;16.008;2022-09-16T14:10:30;15.50;99.90
53498;DHT22;39382;47.168;16.008;2022-09-16T14:13:15;15.40;99.90
53498;DHT22;39382;47.168;16.008;2022-09-16T14:15:52;15.40;99.90
53498;DHT22;39382;47.168;16.008;2022-09-16T14:18:23;15.40;99.90
53498;DHT22;39382;47.168;16.008;2022-09-16T14:21:00;15.40;99.90
53498;DHT22;39382;47.168;16.008;2022-09-16T14:23:26;15.40;99.90
53498;DHT22;39382;47.168;16.008;2022-09-16T14:25:52;15.40;99.90
53498;DHT22;39382;47.168;16.008;2022-09-16T14:33:23;15.60;99.90
53498;DHT22;39382;47.168;16.008;2022-09-16T14:35:52;15.60;99.90
53498;DHT22;39382;47.168;16.008;2022-09-16T14:38:20;15.50;99.90
53498;DHT22;39382;47.168;16.008;2022-09-16T14:40:46;15.40;99.90
53498;DHT22;39382;47.168;16.008;2022-09-16T14:43:19;15.40;99.90
53498;DHT22;39382;47.168;16.008;2022-09-16T14:45:51;15.30;99.90
53498;DHT22;39382;47.168;16.008;2022-09-16T14:48:26;15.30;99.90
53498;DHT22;39382;47.168;16.008;2022-09-16T14:50:53;15.20;99.90
53498;DHT22;39382;47.168;16.008;2022-09-16T14:53:31;15.10;99.90
53498;DHT22;39382;47.168;16.008;2022-09-16T14:55:58;15.10;99.90
53498;DHT22;39382;47.168;16.008;2022-09-16T14:58:26;15.00;99.90
53498;DHT22;39382;47.168;16.008;2022-09-16T15:01:03;15.00;99.90
53498;DHT22;39382;47.168;16.008;2022-09-16T15:03:31;14.90;99.90
53498;DHT22;39382;47.168;16.008;2022-09-16T15:06:05;14.70;99.90
53498;DHT22;39382;47.168;16.008;2022-09-16T15:08:40;14.70;99.90
53498;DHT22;39382;47.168;16.008;2022-09-16T15:11:19;14.60;99.90
53498;DHT22;39382;47.168;16.008;2022-09-16T15:13:46;14.70;99.90
53498;DHT22;39382;47.168;16.008;2022-09-16T15:16:17;14.70;99.90
53498;DHT22;39382;47.168;16.008;2022-09-16T15:18:54;14.70;99.90
53498;DHT22;39382;47.168;16.008;2022-09-16T15:21:27;14.70;99.90
53498;DHT22;39382;47.168;16.008;2022-09-16T15:24:00;14.60;99.90
53498;DHT22;39382;47.168;16.008;2022-09-16T15:29:06;14.60;99.90
53498;DHT22;39382;47.168;16.008;2022-09-16T15:31:39;14.50;99.90
53498;DHT22;39382;47.168;16.008;2022-09-16T15:36:45;14.50;99.90
53498;DHT22;39382;47.168;16.008;2022-09-16T15:39:32;14.50;99.90
53498;DHT22;39382;47.168;16.008;2022-09-16T15:42:13;14.50;99.90
53498;DHT22;39382;47.168;16.008;2022-09-16T15:44:54;14.50;99.90
53498;DHT22;39382;47.168;16.008;2022-09-16T15:48:17;14.50;99.90
53498;DHT22;39382;47.168;16.008;2022-09-16T15:50:49;14.60;99.90
53498;DHT22;39382;47.168;16.008;2022-09-16T15:53:36;14.60;99.90
53498;DHT22;39382;47.168;16.008;2022-09-16T15:58:53;14.50;99.90
53498;DHT22;39382;47.168;16.008;2022-09-16T16:01:45;14.60;99.90
53498;DHT22;39382;47.168;16.008;2022-09-16T16:04:13;14.50;99.90
53498;DHT22;39382;47.168;16.008;2022-09-16T16:06:54;14.50;99.90
53498;DHT22;39382;47.168;16.008;2022-09-16T16:09:27;14.50;99.90
53498;DHT22;39382;47.168;16.008;2022-09-16T16:11:53;14.50;99.90
53498;DHT22;39382;47.168;16.008;2022-09-16T16:14:23;14.40;99.90
53498;DHT22;39382;47.168;16.008;2022-09-16T16:16:50;14.40;99.90
53498;DHT22;39382;47.168;16.008;2022-09-16T16:19:16;14.30;99.90
53498;DHT22;39382;47.168;16.008;2022-09-16T16:21:42;14.40;99.90
53498;DHT22;39382;47.168;16.008;2022-09-16T16:24:13;14.40;99.90
53498;DHT22;39382;47.168;16.008;2022-09-16T16:26:40;14.40;99.90
53498;DHT22;39382;47.168;16.008;2022-09-16T16:29:06;14.40;99.90
53498;DHT22;39382;47.168;16.008;2022-09-16T16:31:31;14.30;99.90
53498;DHT22;39382;47.168;16.008;2022-09-16T16:33:57;14.30;99.90
53498;DHT22;39382;47.168;16.008;2022-09-16T16:36:23;14.30;99.90
53498;DHT22;39382;47.168;16.008;2022-09-16T16:38:49;14.30;99.90
53498;DHT22;39382;47.168;16.008;2022-09-16T16:41:22;14.20;99.90
53498;DHT22;39382;47.168;16.008;2022-09-16T16:43:48;14.20;99.90
53498;DHT22;39382;47.168;16.008;2022-09-16T16:46:14;14.20;99.90
53498;DHT22;39382;47.168;16.008;2022-09-16T16:48:42;14.20;99.90
53498;DHT22;39382;47.168;16.008;2022-09-16T16:51:10;14.20;99.90
53498;DHT22;39382;47.168;16.008;2022-09-16T16:53:36;14.10;99.90
53498;DHT22;39382;47.168;16.008;2022-09-16T16:56:07;14.10;99.90
53498;DHT22;39382;47.168;16.008;2022-09-16T16:58:34;14.10;99.90
53498;DHT22;39382;47.168;16.008;2022-09-16T17:01:12;14.10;99.90
53498;DHT22;39382;47.168;16.008;2022-09-16T17:03:39;14.00;99.90
53498;DHT22;39382;47.168;16.008;2022-09-16T17:06:05;14.00;99.90
53498;DHT22;39382;47.168;16.008;2022-09-16T17:08:32;14.10;99.90
53498;DHT22;39382;47.168;16.008;2022-09-16T17:11:18;14.00;99.90
53498;DHT22;39382;47.168;16.008;2022-09-16T17:13:46;14.00;99.90
53498;DHT22;39382;47.168;16.008;2022-09-16T17:16:14;14.00;99.90
53498;DHT22;39382;47.168;16.008;2022-09-16T17:18:41;14.00;99.90
53498;DHT22;39382;47.168;16.008;2022-09-16T17:21:09;14.00;99.90
53498;DHT22;39382;47.168;16.008;2022-09-16T17:23:35;14.00;99.90
53498;DHT22;39382;47.168;16.008;2022-09-16T17:26:01;14.00;99.90
53498;DHT22;39382;47.168;16.008;2022-09-16T17:28:27;13.90;99.90
53498;DHT22;39382;47.168;16.008;2022-09-16T17:30:52;13.90;99.90
53498;DHT22;39382;47.168;16.008;2022-09-16T17:33:18;14.00;99.90
53498;DHT22;39382;47.168;16.008;2022-09-16T17:35:44;14.00;99.90
53498;DHT22;39382;47.168;16.008;2022-09-16T17:38:10;13.90;99.90
53498;DHT22;39382;47.168;16.008;2022-09-16T17:40:35;13.80;99.90
53498;DHT22;39382;47.168;16.008;2022-09-16T17:43:01;13.80;99.90
53498;DHT22;39382;47.168;16.008;2022-09-16T17:45:27;13.80;99.90
53498;DHT22;39382;47.168;16.008;2022-09-16T17:47:54;13.80;99.90
53498;DHT22;39382;47.168;16.008;2022-09-16T17:50:20;13.80;99.90
53498;DHT22;39382;47.168;16.008;2022-09-16T17:52:45;13.80;99.90
53498;DHT22;39382;47.168;16.008;2022-09-16T17:55:12;13.80;99.90
53498;DHT22;39382;47.168;16.008;2022-09-16T17:57:37;13.80;99.90
53498;DHT22;39382;47.168;16.008;2022-09-16T18:00:04;13.80;99.90
53498;DHT22;39382;47.168;16.008;2022-09-16T18:02:30;13.70;99.90
53498;DHT22;39382;47.168;16.008;2022-09-16T18:04:55;13.80;99.90
53498;DHT22;39382;47.168;16.008;2022-09-16T18:07:21;13.70;99.90
53498;DHT22;39382;47.168;16.008;2022-09-16T18:09:47;13.70;99.90
53498;DHT22;39382;47.168;16.008;2022-09-16T18:12:13;13.70;99.90
53498;DHT22;39382;47.168;16.008;2022-09-16T18:14:38;13.70;99.90
53498;DHT22;39382;47.168;16.008;2022-09-16T18:17:04;13.70;99.90
53498;DHT22;39382;47.168;16.008;2022-09-16T18:19:30;13.70;99.90
53498;DHT22;39382;47.168;16.008;2022-09-16T18:21:56;13.70;99.90
53498;DHT22;39382;47.168;16.008;2022-09-16T18:24:21;13.70;99.90
53498;DHT22;39382;47.168;16.008;2022-09-16T18:26:47;13.80;99.90
53498;DHT22;39382;47.168;16.008;2022-09-16T18:29:13;13.80;99.90
53498;DHT22;39382;47.168;16.008;2022-09-16T18:31:41;13.80;99.90
53498;DHT22;39382;47.168;16.008;2022-09-16T18:34:08;13.80;99.90
53498;DHT22;39382;47.168;16.008;2022-09-16T18:36:34;13.80;99.90
53498;DHT22;39382;47.168;16.008;2022-09-16T18:39:02;13.80;99.90